Time;durP1;ratioP1;P1;durP2;ratioP2;P2;SDS_P1;SDS_P2;PMS_P1;PMS_P2;Temp;Humidity;BMP_temperature;BMP_pressure;BME280_temperature;BME280_humidity;BME280_pressure;Samples;Min_cycle;Max_cycle;Signal;HPM_P1;HPM_P2
2024/03/02 00:01:19;;;;;;;3.57;3.43;;;;;;;;;;5124900;27;20478;-65
2024/03/02 00:03:46;;;;;;;3.67;3.53;;;;;;;;;;5121586;27;20446;-66
2024/03/02 00:06:12;;;;;;;2.93;2.80;;;;;;;;;;5112403;27;20478;-66
2024/03/02 00:08:38;;;;;;;3.10;3.00;;;;;;;;;;5120065;27;20564;-65
2024/03/02 00:11:05;;;;;;;6.13;5.57;;;;;;;;;;5120325;27;20495;-65
2024/03/02 00:13:33;;;;;;;4.20;4.00;;;;;;;;;;5130157;27;20514;-65
2024/03/02 00:16:00;;;;;;;5.50;4.93;;;;;;;;;;5121262;27;20492;-65
2024/03/02 00:18:27;;;;;;;5.57;5.03;;;;;;;;;;5115554;27;21092;-65
2024/03/02 00:20:54;;;;;;;3.60;3.30;;;;;;;;;;5123940;27;20814;-66
2024/03/02 00:23:22;;;;;;;5.10;4.70;;;;;;;;;;5116175;27;20467;-67
2024/03/02 00:25:49;;;;;;;5.90;5.37;;;;;;;;;;5114651;27;20455;-66
2024/03/02 00:28:17;;;;;;;5.53;5.13;;;;;;;;;;5120761;27;20905;-67
2024/03/02 00:31:02;;;;;;;4.40;4.00;;;;;;;;;;5122063;27;20586;-66
2024/03/02 00:33:31;;;;;;;2.93;2.83;;;;;;;;;;5122290;27;20448;-66
2024/03/02 00:35:59;;;;;;;3.30;3.20;;;;;;;;;;5112843;27;20486;-67
2024/03/02 00:38:26;;;;;;;5.30;5.00;;;;;;;;;;5119957;27;20446;-66
2024/03/02 00:40:52;;;;;;;4.00;3.80;;;;;;;;;;5115227;28;20473;-66
2024/03/02 00:43:33;;;;;;;6.77;6.10;;;;;;;;;;5120148;27;20523;-66
2024/03/02 00:46:01;;;;;;;7.10;6.50;;;;;;;;;;5100525;28;20515;-66
2024/03/02 00:48:27;;;;;;;4.03;3.83;;;;;;;;;;5121613;27;20488;-67
2024/03/02 00:50:54;;;;;;;3.43;3.33;;;;;;;;;;5125934;27;20488;-66
2024/03/02 00:53:23;;;;;;;4.70;4.50;;;;;;;;;;5125024;27;20482;-66
2024/03/02 00:55:50;;;;;;;3.27;3.07;;;;;;;;;;5112069;27;20452;-66
2024/03/02 00:58:16;;;;;;;5.07;4.63;;;;;;;;;;5114509;27;20507;-66
2024/03/02 01:00:42;;;;;;;3.37;3.17;;;;;;;;;;5124291;27;20481;-67
2024/03/02 01:03:11;;;;;;;3.23;3.13;;;;;;;;;;5118059;27;20486;-66
2024/03/02 01:05:37;;;;;;;3.60;3.50;;;;;;;;;;5126365;27;20458;-67
2024/03/02 01:08:04;;;;;;;5.00;4.70;;;;;;;;;;5113496;27;20512;-67
2024/03/02 01:10:31;;;;;;;4.60;4.40;;;;;;;;;;5125516;27;20464;-66
2024/03/02 01:12:57;;;;;;;3.43;3.33;;;;;;;;;;5118616;28;20458;-65
2024/03/02 01:15:24;;;;;;;3.60;3.50;;;;;;;;;;5125885;27;20521;-65
2024/03/02 01:17:50;;;;;;;5.87;5.47;;;;;;;;;;5122650;27;20943;-66
2024/03/02 01:20:18;;;;;;;3.70;3.60;;;;;;;;;;5112356;27;20477;-65
2024/03/02 01:22:44;;;;;;;3.40;3.30;;;;;;;;;;5122138;27;20512;-66
2024/03/02 01:25:11;;;;;;;5.17;4.77;;;;;;;;;;5128014;27;20446;-66
2024/03/02 01:27:38;;;;;;;4.63;4.20;;;;;;;;;;5121156;27;20447;-65
2024/03/02 01:30:04;;;;;;;4.37;4.07;;;;;;;;;;5119296;27;20485;-66
2024/03/02 01:32:31;;;;;;;6.50;6.00;;;;;;;;;;5131526;27;21032;-66
2024/03/02 01:34:57;;;;;;;5.83;5.00;;;;;;;;;;5109855;28;20461;-66
2024/03/02 01:37:25;;;;;;;3.03;2.93;;;;;;;;;;5118293;27;20552;-67
2024/03/02 01:39:51;;;;;;;16.30;7.57;;;;;;;;;;5127741;27;20548;-67
2024/03/02 01:42:18;;;;;;;5.37;4.93;;;;;;;;;;5105402;28;20478;-67
2024/03/02 01:44:45;;;;;;;5.60;4.80;;;;;;;;;;5126335;27;20779;-67
2024/03/02 01:47:12;;;;;;;3.07;2.97;;;;;;;;;;5122751;27;21130;-67
2024/03/02 01:49:38;;;;;;;7.40;5.33;;;;;;;;;;5119264;27;20993;-66
2024/03/02 01:52:05;;;;;;;5.57;5.07;;;;;;;;;;5122504;27;20462;-67
2024/03/02 01:54:32;;;;;;;6.17;5.60;;;;;;;;;;5118158;27;20477;-67
2024/03/02 01:56:59;;;;;;;3.67;3.57;;;;;;;;;;5115390;27;20552;-67
2024/03/02 01:59:26;;;;;;;2.80;2.70;;;;;;;;;;5121829;28;20481;-67
2024/03/02 02:01:52;;;;;;;4.53;4.30;;;;;;;;;;5113055;28;20966;-68
2024/03/02 02:04:21;;;;;;;6.23;5.63;;;;;;;;;;5121153;27;20441;-68
2024/03/02 02:06:47;;;;;;;7.30;5.57;;;;;;;;;;5110180;27;20474;-67
2024/03/02 02:09:14;;;;;;;5.37;4.97;;;;;;;;;;5116129;27;20442;-67
2024/03/02 02:11:42;;;;;;;6.07;5.53;;;;;;;;;;5121723;27;20486;-67
2024/03/02 02:14:08;;;;;;;4.90;4.70;;;;;;;;;;5122598;27;20437;-68
2024/03/02 02:16:34;;;;;;;6.23;5.70;;;;;;;;;;5124028;27;20929;-67
2024/03/02 02:19:01;;;;;;;6.43;5.73;;;;;;;;;;5122272;28;20859;-67
2024/03/02 02:21:29;;;;;;;4.73;4.43;;;;;;;;;;5120950;27;20924;-67
2024/03/02 02:23:55;;;;;;;5.87;5.37;;;;;;;;;;5118730;28;20454;-67
2024/03/02 02:26:21;;;;;;;7.90;7.10;;;;;;;;;;5120094;27;20479;-67
2024/03/02 02:28:48;;;;;;;5.90;5.40;;;;;;;;;;5113795;27;20891;-66
2024/03/02 02:31:14;;;;;;;6.43;5.83;;;;;;;;;;5122065;28;21120;-67
2024/03/02 02:33:41;;;;;;;7.10;6.40;;;;;;;;;;5121896;28;20481;-66
2024/03/02 02:36:07;;;;;;;4.97;4.67;;;;;;;;;;5118016;28;20449;-67
2024/03/02 02:38:37;;;;;;;5.20;4.90;;;;;;;;;;5133820;28;20535;-66
2024/03/02 02:41:03;;;;;;;5.73;5.23;;;;;;;;;;5122887;28;20449;-65
2024/03/02 02:43:30;;;;;;;5.67;5.37;;;;;;;;;;5126564;28;20493;-66
2024/03/02 02:45:56;;;;;;;6.30;5.80;;;;;;;;;;5117908;28;20455;-66
2024/03/02 02:48:22;;;;;;;4.27;4.07;;;;;;;;;;5119946;28;20479;-67
2024/03/02 02:50:49;;;;;;;5.40;5.10;;;;;;;;;;5111895;28;20478;-66
2024/03/02 02:53:15;;;;;;;6.40;5.90;;;;;;;;;;5124332;28;20868;-67
2024/03/02 02:55:43;;;;;;;4.37;3.97;;;;;;;;;;5119017;28;20817;-67
2024/03/02 02:58:09;;;;;;;5.27;4.97;;;;;;;;;;5117865;28;20539;-67
2024/03/02 03:00:36;;;;;;;6.40;5.90;;;;;;;;;;5117876;28;20454;-67
2024/03/02 03:03:02;;;;;;;3.70;3.40;;;;;;;;;;5121098;28;20453;-67
2024/03/02 03:05:29;;;;;;;6.20;5.80;;;;;;;;;;5117705;28;20438;-67
2024/03/02 03:07:55;;;;;;;5.60;5.30;;;;;;;;;;5121825;28;20501;-67
2024/03/02 03:10:23;;;;;;;5.20;4.67;;;;;;;;;;5112399;28;20459;-67
2024/03/02 03:12:51;;;;;;;5.83;5.43;;;;;;;;;;5113456;28;20462;-66
2024/03/02 03:15:17;;;;;;;5.87;5.47;;;;;;;;;;5110753;28;20438;-66
2024/03/02 03:17:47;;;;;;;4.10;3.90;;;;;;;;;;5121498;28;20817;-66
2024/03/02 03:20:15;;;;;;;5.73;5.43;;;;;;;;;;5121864;27;20938;-66
2024/03/02 03:22:41;;;;;;;6.00;5.53;;;;;;;;;;5126212;27;20541;-66
2024/03/02 03:25:08;;;;;;;4.93;4.60;;;;;;;;;;5132690;27;20460;-66
2024/03/02 03:27:34;;;;;;;5.13;4.80;;;;;;;;;;5131969;27;20468;-66
2024/03/02 03:30:02;;;;;;;5.13;4.77;;;;;;;;;;5121548;28;20466;-66
2024/03/02 03:32:29;;;;;;;6.60;6.00;;;;;;;;;;5115723;27;20499;-66
2024/03/02 03:34:55;;;;;;;11.47;7.60;;;;;;;;;;5107374;28;20811;-66
2024/03/02 03:37:22;;;;;;;6.30;5.43;;;;;;;;;;5112382;28;20520;-66
2024/03/02 03:39:48;;;;;;;8.63;6.70;;;;;;;;;;5120997;28;20493;-66
2024/03/02 03:42:14;;;;;;;7.83;7.13;;;;;;;;;;5126196;27;20457;-66
2024/03/02 03:44:41;;;;;;;3.50;3.40;;;;;;;;;;5125166;27;20507;-66
2024/03/02 03:47:09;;;;;;;6.47;6.00;;;;;;;;;;5128535;27;21028;-66
2024/03/02 03:49:35;;;;;;;10.37;7.87;;;;;;;;;;5129012;27;20449;-67
2024/03/02 03:52:02;;;;;;;6.17;4.57;;;;;;;;;;5120670;27;20481;-67
2024/03/02 03:54:28;;;;;;;3.30;3.20;;;;;;;;;;5117903;27;21143;-67
2024/03/02 03:56:54;;;;;;;4.70;4.40;;;;;;;;;;5122798;27;20492;-65
2024/03/02 03:59:21;;;;;;;5.47;5.20;;;;;;;;;;5127796;27;20466;-66
2024/03/02 04:01:47;;;;;;;11.67;8.13;;;;;;;;;;5126569;27;20486;-66
2024/03/02 04:04:15;;;;;;;5.17;4.77;;;;;;;;;;5130411;27;20501;-66
2024/03/02 04:06:41;;;;;;;5.00;4.60;;;;;;;;;;5128820;27;20488;-66
2024/03/02 04:09:08;;;;;;;6.67;6.03;;;;;;;;;;5130068;27;20904;-66
2024/03/02 04:11:34;;;;;;;6.40;5.80;;;;;;;;;;5121262;27;20481;-65
2024/03/02 04:14:00;;;;;;;9.87;7.97;;;;;;;;;;5125316;27;20462;-66
2024/03/02 04:16:28;;;;;;;8.60;7.90;;;;;;;;;;5116838;27;20458;-66
2024/03/02 04:18:55;;;;;;;3.87;3.67;;;;;;;;;;5111817;28;20535;-66
2024/03/02 04:21:23;;;;;;;8.97;8.10;;;;;;;;;;5117379;27;20443;-66
2024/03/02 04:23:50;;;;;;;6.50;4.80;;;;;;;;;;5128609;27;20595;-66
2024/03/02 04:26:21;;;;;;;5.03;4.73;;;;;;;;;;5117614;28;20533;-66
2024/03/02 04:28:48;;;;;;;9.60;6.73;;;;;;;;;;5125412;27;20477;-66
2024/03/02 04:31:15;;;;;;;6.00;5.50;;;;;;;;;;5129575;27;20465;-66
2024/03/02 04:33:42;;;;;;;8.23;7.33;;;;;;;;;;5124427;27;20551;-67
2024/03/02 04:36:09;;;;;;;8.17;6.87;;;;;;;;;;5121097;27;20478;-66
2024/03/02 04:38:37;;;;;;;4.23;4.03;;;;;;;;;;5112089;27;20565;-66
2024/03/02 04:41:04;;;;;;;9.70;7.00;;;;;;;;;;5117913;28;20479;-67
2024/03/02 04:43:31;;;;;;;10.43;8.77;;;;;;;;;;5118977;28;20493;-67
2024/03/02 04:45:58;;;;;;;4.33;4.10;;;;;;;;;;5120180;27;20458;-67
2024/03/02 04:48:25;;;;;;;11.10;7.07;;;;;;;;;;5129537;27;20587;-67
2024/03/02 04:50:51;;;;;;;13.60;9.90;;;;;;;;;;5120087;28;20446;-65
2024/03/02 04:53:17;;;;;;;4.37;4.10;;;;;;;;;;5123854;27;20486;-67
2024/03/02 04:58:29;;;;;;;12.13;5.87;;;;;;;;;;5122115;27;20519;-66
2024/03/02 05:00:56;;;;;;;4.70;4.40;;;;;;;;;;5117954;27;20478;-66
2024/03/02 05:03:22;;;;;;;4.70;4.30;;;;;;;;;;5119588;27;20518;-66
2024/03/02 05:05:49;;;;;;;6.97;6.37;;;;;;;;;;5121979;27;20496;-65
2024/03/02 05:08:16;;;;;;;13.83;10.80;;;;;;;;;;5122268;27;21121;-66
2024/03/02 05:10:43;;;;;;;7.13;3.77;;;;;;;;;;5120640;27;20445;-65
2024/03/02 05:13:10;;;;;;;5.60;4.50;;;;;;;;;;5117383;27;20475;-66
2024/03/02 05:15:36;;;;;;;11.50;10.27;;;;;;;;;;5123374;27;20473;-66
2024/03/02 05:18:05;;;;;;;4.10;3.80;;;;;;;;;;5125905;27;20482;-66
2024/03/02 05:20:31;;;;;;;6.10;5.33;;;;;;;;;;5118075;28;20482;-66
2024/03/02 05:22:57;;;;;;;3.80;3.50;;;;;;;;;;5117457;27;20541;-66
2024/03/02 05:25:24;;;;;;;2.77;2.67;;;;;;;;;;5122369;27;20489;-66
2024/03/02 05:27:50;;;;;;;10.30;8.40;;;;;;;;;;5119008;28;20550;-66
2024/03/02 05:30:18;;;;;;;4.03;3.80;;;;;;;;;;5118884;28;20569;-66
2024/03/02 05:32:44;;;;;;;4.40;4.00;;;;;;;;;;5127879;27;20477;-66
2024/03/02 05:35:12;;;;;;;6.10;5.50;;;;;;;;;;5118523;27;20521;-66
2024/03/02 05:37:39;;;;;;;5.20;4.80;;;;;;;;;;5119166;28;21056;-66
2024/03/02 05:40:06;;;;;;;10.00;8.50;;;;;;;;;;5111394;28;20497;-66
2024/03/02 05:42:32;;;;;;;4.00;3.70;;;;;;;;;;5118696;27;20473;-67
2024/03/02 05:44:59;;;;;;;15.20;8.63;;;;;;;;;;5117989;27;20466;-66
2024/03/02 05:47:27;;;;;;;7.30;6.67;;;;;;;;;;5115997;27;20445;-67
2024/03/02 05:49:54;;;;;;;4.93;4.53;;;;;;;;;;5119114;27;20478;-68
2024/03/02 05:52:20;;;;;;;6.03;5.67;;;;;;;;;;5113955;27;20449;-68
2024/03/02 05:54:48;;;;;;;5.80;5.33;;;;;;;;;;5119722;27;20481;-67
2024/03/02 05:57:31;;;;;;;3.00;2.90;;;;;;;;;;5118734;27;20829;-67
2024/03/02 05:59:58;;;;;;;5.07;4.27;;;;;;;;;;5111099;28;20463;-67
2024/03/02 06:02:24;;;;;;;12.93;7.33;;;;;;;;;;5122311;27;20501;-66
2024/03/02 06:04:52;;;;;;;10.23;7.73;;;;;;;;;;5122438;27;20449;-66
2024/03/02 06:07:18;;;;;;;4.23;3.40;;;;;;;;;;5120635;27;20457;-66
2024/03/02 06:09:48;;;;;;;3.50;3.40;;;;;;;;;;5122480;27;20449;-67
2024/03/02 06:12:14;;;;;;;6.33;5.73;;;;;;;;;;5124979;27;20548;-67
2024/03/02 06:14:41;;;;;;;3.03;2.93;;;;;;;;;;5114899;28;20446;-66
2024/03/02 06:17:07;;;;;;;6.40;5.70;;;;;;;;;;5127306;27;20497;-67
2024/03/02 06:19:33;;;;;;;5.33;4.93;;;;;;;;;;5129089;27;20477;-67
2024/03/02 06:22:01;;;;;;;11.77;10.03;;;;;;;;;;5122855;27;20478;-67
2024/03/02 06:24:28;;;;;;;4.30;4.00;;;;;;;;;;5113066;28;20470;-67
2024/03/02 06:26:54;;;;;;;11.27;4.00;;;;;;;;;;5128368;27;20479;-67
2024/03/02 06:29:21;;;;;;;8.10;5.50;;;;;;;;;;5117717;27;20530;-69
2024/03/02 06:31:48;;;;;;;3.20;3.03;;;;;;;;;;5117958;27;20449;-69
2024/03/02 06:34:14;;;;;;;11.17;9.90;;;;;;;;;;5125239;28;20552;-67
2024/03/02 06:36:42;;;;;;;6.67;5.00;;;;;;;;;;5120390;28;20489;-67
2024/03/02 06:39:10;;;;;;;3.30;3.20;;;;;;;;;;5129423;28;20508;-68
2024/03/02 06:41:37;;;;;;;11.20;9.27;;;;;;;;;;5126839;28;20440;-68
2024/03/02 06:44:03;;;;;;;7.73;6.80;;;;;;;;;;5126431;28;20488;-67
2024/03/02 06:46:30;;;;;;;3.80;3.60;;;;;;;;;;5123268;28;20488;-67
2024/03/02 06:48:56;;;;;;;5.80;4.57;;;;;;;;;;5119481;28;20438;-68
2024/03/02 06:51:23;;;;;;;9.53;7.53;;;;;;;;;;5119073;28;21197;-67
2024/03/02 06:53:49;;;;;;;8.73;7.83;;;;;;;;;;5111673;28;20450;-67
2024/03/02 06:56:17;;;;;;;5.43;5.03;;;;;;;;;;5119552;28;20482;-67
2024/03/02 06:58:43;;;;;;;4.47;4.27;;;;;;;;;;5123397;27;20501;-67
2024/03/02 07:01:10;;;;;;;3.90;3.70;;;;;;;;;;5126917;27;21072;-68
2024/03/02 07:03:36;;;;;;;5.07;4.57;;;;;;;;;;5121202;27;20466;-68
2024/03/02 07:06:03;;;;;;;9.67;7.87;;;;;;;;;;5118307;27;20442;-66
2024/03/02 07:08:29;;;;;;;5.83;4.80;;;;;;;;;;5130525;27;20484;-67
2024/03/02 07:10:56;;;;;;;3.73;3.57;;;;;;;;;;5124293;27;20496;-67
2024/03/02 07:13:24;;;;;;;4.23;3.93;;;;;;;;;;5128557;27;20460;-67
2024/03/02 07:16:21;;;;;;;5.37;5.07;;;;;;;;;;5125944;27;20481;-66
2024/03/02 07:18:51;;;;;;;5.73;5.23;;;;;;;;;;5124612;27;20469;-67
2024/03/02 07:21:17;;;;;;;8.87;7.50;;;;;;;;;;5103307;27;21018;-66
2024/03/02 07:23:44;;;;;;;11.40;8.43;;;;;;;;;;5121129;27;20474;-67
2024/03/02 07:26:10;;;;;;;5.90;5.50;;;;;;;;;;5117604;28;20442;-67
2024/03/02 07:28:38;;;;;;;7.07;6.43;;;;;;;;;;5108319;28;20466;-67
2024/03/02 07:31:05;;;;;;;3.73;3.33;;;;;;;;;;5106507;28;20553;-67
2024/03/02 07:33:32;;;;;;;10.33;8.57;;;;;;;;;;5112494;28;20490;-67
2024/03/02 07:35:59;;;;;;;9.60;7.33;;;;;;;;;;5109059;28;20464;-67
2024/03/02 07:38:25;;;;;;;21.97;16.07;;;;;;;;;;5114458;27;20974;-68
2024/03/02 07:40:52;;;;;;;10.93;10.20;;;;;;;;;;5110391;28;20475;-67
2024/03/02 07:43:20;;;;;;;6.73;6.43;;;;;;;;;;5106077;28;20484;-67
2024/03/02 07:45:47;;;;;;;10.17;9.03;;;;;;;;;;5110698;28;20431;-67
2024/03/02 07:48:14;;;;;;;5.57;4.40;;;;;;;;;;5120391;27;20509;-67
2024/03/02 07:50:40;;;;;;;4.17;3.93;;;;;;;;;;5118599;27;20485;-68
2024/03/02 07:53:07;;;;;;;10.40;9.20;;;;;;;;;;5116536;27;20482;-69
2024/03/02 07:55:34;;;;;;;3.43;3.30;;;;;;;;;;5121009;27;20442;-68
2024/03/02 07:58:00;;;;;;;4.00;3.80;;;;;;;;;;5123355;27;20454;-68
2024/03/02 08:00:27;;;;;;;2.93;2.77;;;;;;;;;;5116189;28;21146;-69
2024/03/02 08:02:56;;;;;;;7.37;6.70;;;;;;;;;;5120802;27;20467;-69
2024/03/02 08:05:22;;;;;;;8.03;7.30;;;;;;;;;;5123420;27;20450;-69
2024/03/02 08:07:52;;;;;;;7.57;5.93;;;;;;;;;;5123586;27;20439;-69
2024/03/02 08:10:19;;;;;;;5.10;4.70;;;;;;;;;;5124242;27;20453;-69
2024/03/02 08:12:45;;;;;;;7.10;6.50;;;;;;;;;;5122521;27;20458;-70
2024/03/02 08:15:12;;;;;;;7.70;7.30;;;;;;;;;;5117287;27;20469;-70
2024/03/02 08:17:40;;;;;;;7.53;7.03;;;;;;;;;;5120087;27;20449;-69
2024/03/02 08:20:10;;;;;;;8.90;8.17;;;;;;;;;;5128418;27;20994;-72
2024/03/02 08:22:36;;;;;;;10.73;9.83;;;;;;;;;;5129994;27;20454;-71
2024/03/02 08:25:03;;;;;;;9.97;9.07;;;;;;;;;;5116328;28;20471;-69
2024/03/02 08:27:29;;;;;;;9.40;8.70;;;;;;;;;;5125508;27;20953;-70
2024/03/02 08:29:56;;;;;;;9.87;9.07;;;;;;;;;;5120218;27;20981;-70
2024/03/02 08:32:22;;;;;;;7.40;6.97;;;;;;;;;;5105587;27;20475;-70
2024/03/02 08:34:48;;;;;;;6.70;6.23;;;;;;;;;;5113825;27;20474;-70
2024/03/02 08:37:16;;;;;;;7.60;7.00;;;;;;;;;;5118944;27;20527;-69
2024/03/02 08:39:44;;;;;;;9.17;8.33;;;;;;;;;;5118092;27;21002;-70
2024/03/02 08:42:10;;;;;;;7.73;7.03;;;;;;;;;;5130420;27;21030;-69
2024/03/02 08:44:37;;;;;;;7.67;7.07;;;;;;;;;;5121042;27;20477;-71
2024/03/02 08:47:03;;;;;;;6.40;6.10;;;;;;;;;;5124405;27;20521;-69
2024/03/02 08:49:30;;;;;;;7.97;7.37;;;;;;;;;;5117595;28;20513;-70
2024/03/02 08:51:56;;;;;;;6.20;6.00;;;;;;;;;;5123269;27;20520;-71
2024/03/02 08:54:24;;;;;;;9.00;8.27;;;;;;;;;;5110266;28;20474;-70
2024/03/02 08:56:50;;;;;;;8.53;7.87;;;;;;;;;;5112080;28;20496;-70
2024/03/02 08:59:17;;;;;;;5.77;5.57;;;;;;;;;;5123792;27;20563;-70
2024/03/02 09:01:44;;;;;;;7.20;6.70;;;;;;;;;;5124995;27;20464;-70
2024/03/02 09:04:11;;;;;;;7.53;6.93;;;;;;;;;;5119843;28;20488;-70
2024/03/02 09:06:37;;;;;;;9.53;8.93;;;;;;;;;;5120096;27;20457;-70
2024/03/02 09:09:04;;;;;;;8.60;8.00;;;;;;;;;;5125574;27;20469;-70
2024/03/02 09:11:32;;;;;;;7.53;7.03;;;;;;;;;;5116606;28;20680;-69
2024/03/02 09:13:58;;;;;;;8.30;7.70;;;;;;;;;;5114329;27;20488;-70
2024/03/02 09:16:30;;;;;;;5.67;5.47;;;;;;;;;;5128513;27;20578;-70
2024/03/02 09:18:56;;;;;;;12.17;11.20;;;;;;;;;;5122678;27;20489;-69
2024/03/02 09:21:23;;;;;;;12.30;11.20;;;;;;;;;;5120889;27;20544;-71
2024/03/02 09:23:50;;;;;;;11.77;10.83;;;;;;;;;;5118725;27;20457;-70
2024/03/02 09:26:16;;;;;;;11.90;11.00;;;;;;;;;;5112626;28;20450;-71
2024/03/02 09:28:45;;;;;;;11.97;10.97;;;;;;;;;;5122217;27;20485;-71
2024/03/02 09:31:11;;;;;;;11.57;10.63;;;;;;;;;;5109099;28;20451;-70
2024/03/02 09:33:38;;;;;;;12.00;11.00;;;;;;;;;;5120754;27;21533;-70
2024/03/02 09:36:05;;;;;;;9.93;9.13;;;;;;;;;;5124765;27;20551;-70
2024/03/02 09:38:33;;;;;;;10.73;9.93;;;;;;;;;;5118431;27;20501;-70
2024/03/02 09:41:00;;;;;;;10.50;9.70;;;;;;;;;;5118511;28;20482;-70
2024/03/02 09:43:26;;;;;;;10.93;10.03;;;;;;;;;;5106933;27;20963;-70
2024/03/02 09:45:54;;;;;;;10.33;9.43;;;;;;;;;;5119584;27;20553;-70
2024/03/02 09:48:20;;;;;;;9.63;8.90;;;;;;;;;;5114128;28;20483;-70
2024/03/02 09:50:47;;;;;;;9.80;9.20;;;;;;;;;;5118120;27;20485;-71
2024/03/02 09:53:14;;;;;;;10.23;9.53;;;;;;;;;;5127904;27;20462;-70
2024/03/02 09:55:43;;;;;;;10.53;9.83;;;;;;;;;;5121974;27;20528;-71
2024/03/02 09:58:10;;;;;;;10.80;9.90;;;;;;;;;;5121240;27;20450;-70
2024/03/02 10:00:36;;;;;;;9.90;9.00;;;;;;;;;;5127365;27;20785;-69
2024/03/02 10:03:05;;;;;;;11.23;10.23;;;;;;;;;;5106262;28;21035;-69
2024/03/02 10:05:31;;;;;;;9.60;8.83;;;;;;;;;;5127003;27;20461;-70
2024/03/02 10:08:02;;;;;;;15.43;14.33;;;;;;;;;;5116452;27;20481;-70
2024/03/02 10:10:35;;;;;;;9.30;8.50;;;;;;;;;;5115670;27;20557;-71
2024/03/02 10:13:04;;;;;;;10.60;9.60;;;;;;;;;;5112395;28;20540;-72
2024/03/02 10:15:31;;;;;;;17.33;15.77;;;;;;;;;;5129076;27;20457;-70
2024/03/02 10:17:57;;;;;;;11.17;10.27;;;;;;;;;;5118873;28;20453;-70
2024/03/02 10:20:26;;;;;;;9.73;8.87;;;;;;;;;;5110181;28;20513;-70
2024/03/02 10:22:52;;;;;;;9.03;8.33;;;;;;;;;;5114202;27;20449;-69
2024/03/02 10:25:32;;;;;;;10.50;9.67;;;;;;;;;;5110169;28;20462;-70
2024/03/02 10:27:59;;;;;;;12.00;11.10;;;;;;;;;;5123114;28;21072;-70
2024/03/02 10:30:25;;;;;;;12.07;11.07;;;;;;;;;;5124868;27;20489;-69
2024/03/02 10:32:53;;;;;;;12.33;11.30;;;;;;;;;;5115966;27;20469;-69
2024/03/02 10:35:20;;;;;;;10.60;9.70;;;;;;;;;;5126857;28;20963;-70
2024/03/02 10:37:49;;;;;;;10.83;10.00;;;;;;;;;;5114259;28;21236;-70
2024/03/02 10:40:15;;;;;;;11.40;10.40;;;;;;;;;;5126670;28;20490;-70
2024/03/02 10:42:42;;;;;;;11.30;10.40;;;;;;;;;;5118572;28;20473;-71
2024/03/02 10:45:10;;;;;;;12.60;11.70;;;;;;;;;;5110017;28;20493;-70
2024/03/02 10:47:37;;;;;;;11.67;10.77;;;;;;;;;;5126559;28;20454;-70
2024/03/02 10:50:08;;;;;;;9.83;8.93;;;;;;;;;;5119107;28;20480;-71
2024/03/02 10:52:34;;;;;;;12.03;11.10;;;;;;;;;;5120966;28;20460;-68
2024/03/02 10:55:05;;;;;;;12.33;11.33;;;;;;;;;;5117703;28;20497;-69
2024/03/02 10:57:33;;;;;;;10.83;10.00;;;;;;;;;;5113917;28;20467;-69
2024/03/02 11:00:02;;;;;;;11.43;10.63;;;;;;;;;;5116525;28;20475;-70
2024/03/02 11:02:31;;;;;;;11.07;10.27;;;;;;;;;;5111466;28;20459;-70
2024/03/02 11:04:57;;;;;;;11.57;10.67;;;;;;;;;;5123950;28;20512;-71
2024/03/02 11:07:24;;;;;;;10.70;10.00;;;;;;;;;;5122102;28;20450;-70
2024/03/02 11:09:55;;;;;;;11.93;11.13;;;;;;;;;;5114087;28;20507;-69
2024/03/02 11:12:26;;;;;;;11.33;10.60;;;;;;;;;;5113361;28;20485;-70
2024/03/02 11:14:52;;;;;;;10.60;9.80;;;;;;;;;;5116477;28;20511;-69
2024/03/02 11:17:19;;;;;;;10.10;9.30;;;;;;;;;;5123782;28;20457;-69
2024/03/02 11:19:46;;;;;;;10.07;9.37;;;;;;;;;;5114946;28;20485;-71
2024/03/02 11:22:13;;;;;;;10.13;9.43;;;;;;;;;;5123451;28;20509;-70
2024/03/02 11:24:39;;;;;;;10.10;9.40;;;;;;;;;;5134845;28;20477;-69
2024/03/02 11:27:07;;;;;;;9.87;9.17;;;;;;;;;;5112542;28;20485;-70
2024/03/02 11:29:52;;;;;;;10.10;9.43;;;;;;;;;;5121991;28;20509;-71
2024/03/02 11:32:22;;;;;;;9.10;8.43;;;;;;;;;;5113470;28;20454;-70
2024/03/02 11:34:49;;;;;;;10.60;9.20;;;;;;;;;;5113619;28;20471;-70
2024/03/02 11:37:15;;;;;;;8.67;7.97;;;;;;;;;;5111225;28;20533;-69
2024/03/02 11:39:42;;;;;;;8.83;8.23;;;;;;;;;;5112867;28;20504;-71
2024/03/02 11:42:09;;;;;;;9.07;8.27;;;;;;;;;;5103953;28;20485;-69
2024/03/02 11:44:36;;;;;;;9.50;8.80;;;;;;;;;;5117813;27;20530;-68
2024/03/02 11:47:05;;;;;;;9.40;8.63;;;;;;;;;;5123734;27;20471;-68
2024/03/02 11:49:40;;;;;;;9.80;9.20;;;;;;;;;;5111038;27;20457;-70
2024/03/02 11:52:07;;;;;;;9.27;8.47;;;;;;;;;;5118737;27;20450;-70
2024/03/02 11:54:35;;;;;;;9.10;8.40;;;;;;;;;;5115398;27;20483;-70
2024/03/02 11:57:02;;;;;;;12.00;11.20;;;;;;;;;;5120175;27;20452;-69
2024/03/02 11:59:29;;;;;;;12.07;11.27;;;;;;;;;;5126531;27;20485;-69
2024/03/02 12:01:55;;;;;;;11.00;10.20;;;;;;;;;;5115721;27;21068;-70
2024/03/02 12:04:22;;;;;;;11.10;10.20;;;;;;;;;;5121269;27;20485;-70
2024/03/02 12:06:55;;;;;;;10.10;9.30;;;;;;;;;;5126612;27;20477;-69
2024/03/02 12:09:21;;;;;;;10.40;9.60;;;;;;;;;;5119417;28;20450;-73
2024/03/02 12:11:47;;;;;;;10.67;9.77;;;;;;;;;;5124875;27;20469;-63
2024/03/02 12:14:14;;;;;;;8.83;8.13;;;;;;;;;;5122201;27;20488;-65
2024/03/02 12:16:44;;;;;;;8.97;8.20;;;;;;;;;;5125064;27;20526;-69
2024/03/02 12:19:11;;;;;;;7.97;7.37;;;;;;;;;;5114334;28;20582;-70
2024/03/02 12:21:37;;;;;;;7.53;6.93;;;;;;;;;;5114868;27;20473;-70
2024/03/02 12:24:05;;;;;;;10.30;9.50;;;;;;;;;;5115261;27;20489;-69
2024/03/02 12:26:32;;;;;;;9.63;8.90;;;;;;;;;;5127011;27;20515;-69
2024/03/02 12:28:59;;;;;;;9.43;8.77;;;;;;;;;;5128685;27;20771;-69
2024/03/02 12:31:25;;;;;;;10.33;9.63;;;;;;;;;;5126018;27;20482;-70
2024/03/02 12:33:51;;;;;;;9.50;8.80;;;;;;;;;;5119772;28;20565;-70
2024/03/02 12:36:19;;;;;;;8.87;8.27;;;;;;;;;;5121466;27;20470;-70
2024/03/02 12:38:46;;;;;;;9.67;8.77;;;;;;;;;;5131659;27;20489;-70
2024/03/02 12:41:16;;;;;;;10.10;9.30;;;;;;;;;;5117360;27;20572;-69
2024/03/02 12:43:43;;;;;;;9.50;8.70;;;;;;;;;;5126659;27;20482;-65
2024/03/02 12:46:09;;;;;;;8.90;8.20;;;;;;;;;;5114531;27;20525;-66
2024/03/02 12:48:36;;;;;;;10.53;9.63;;;;;;;;;;5115755;27;20493;-65
2024/03/02 12:51:03;;;;;;;10.40;9.20;;;;;;;;;;5128064;27;20519;-66
2024/03/02 12:53:29;;;;;;;9.60;8.77;;;;;;;;;;5123621;27;20652;-67
2024/03/02 12:55:56;;;;;;;9.37;8.43;;;;;;;;;;5120113;27;20454;-64
2024/03/02 12:58:24;;;;;;;8.90;8.17;;;;;;;;;;5118244;27;20819;-69
2024/03/02 13:00:50;;;;;;;9.03;8.27;;;;;;;;;;5121087;27;20597;-69
2024/03/02 13:03:19;;;;;;;10.10;9.10;;;;;;;;;;5123261;27;20485;-68
2024/03/02 13:05:49;;;;;;;9.50;8.73;;;;;;;;;;5118828;27;20458;-68
2024/03/02 13:08:15;;;;;;;9.50;8.70;;;;;;;;;;5121278;27;21075;-69
2024/03/02 13:10:42;;;;;;;10.20;9.40;;;;;;;;;;5131048;27;20508;-69
2024/03/02 13:13:08;;;;;;;10.13;9.10;;;;;;;;;;5125892;27;20456;-69
2024/03/02 13:15:36;;;;;;;9.63;8.93;;;;;;;;;;5121860;27;20513;-69
2024/03/02 13:18:03;;;;;;;10.47;9.50;;;;;;;;;;5126884;27;20515;-69
2024/03/02 13:20:31;;;;;;;10.40;9.60;;;;;;;;;;5116933;28;20469;-70
2024/03/02 13:22:57;;;;;;;9.20;8.50;;;;;;;;;;5122206;27;20446;-69
2024/03/02 13:25:24;;;;;;;11.03;9.93;;;;;;;;;;5119411;28;20450;-69
2024/03/02 13:27:51;;;;;;;9.87;8.97;;;;;;;;;;5127368;27;20518;-69
2024/03/02 13:30:17;;;;;;;9.03;8.33;;;;;;;;;;5119459;27;20523;-68
2024/03/02 13:32:45;;;;;;;7.67;7.07;;;;;;;;;;5110051;28;20492;-70
2024/03/02 13:35:12;;;;;;;8.43;7.83;;;;;;;;;;5109372;27;20453;-66
2024/03/02 13:37:38;;;;;;;7.60;7.10;;;;;;;;;;5111164;28;20454;-64
2024/03/02 13:40:05;;;;;;;7.23;6.63;;;;;;;;;;5110639;27;20490;-63
2024/03/02 13:42:32;;;;;;;7.37;6.77;;;;;;;;;;5113874;28;20458;-65
2024/03/02 13:44:58;;;;;;;7.63;7.03;;;;;;;;;;5104570;28;20469;-67
2024/03/02 13:47:25;;;;;;;6.70;6.20;;;;;;;;;;5101014;28;20530;-65
2024/03/02 13:49:52;;;;;;;7.97;7.47;;;;;;;;;;5105527;28;20455;-65
2024/03/02 13:52:20;;;;;;;9.23;7.80;;;;;;;;;;5103910;27;20497;-65
2024/03/02 13:54:47;;;;;;;7.90;7.40;;;;;;;;;;5112389;28;20503;-64
2024/03/02 13:57:13;;;;;;;7.93;7.43;;;;;;;;;;5112174;28;20815;-67
2024/03/02 13:59:40;;;;;;;8.77;8.07;;;;;;;;;;5127659;27;20450;-62
2024/03/02 14:02:07;;;;;;;8.30;7.80;;;;;;;;;;5121012;27;20885;-63
2024/03/02 14:04:34;;;;;;;8.23;7.73;;;;;;;;;;5116712;27;20461;-61
2024/03/02 14:07:02;;;;;;;8.77;8.17;;;;;;;;;;5128156;27;20445;-64
2024/03/02 14:09:28;;;;;;;8.83;8.23;;;;;;;;;;5125376;27;20445;-65
2024/03/02 14:11:55;;;;;;;7.97;7.57;;;;;;;;;;5120805;27;20489;-65
2024/03/02 14:14:21;;;;;;;8.00;7.33;;;;;;;;;;5123953;27;20482;-66
2024/03/02 14:16:48;;;;;;;8.03;7.50;;;;;;;;;;5123429;27;20446;-66
2024/03/02 14:19:14;;;;;;;7.80;7.30;;;;;;;;;;5127655;27;21043;-65
2024/03/02 14:21:41;;;;;;;8.43;7.83;;;;;;;;;;5125114;27;20942;-66
2024/03/02 14:24:09;;;;;;;6.87;6.37;;;;;;;;;;5117156;28;20477;-66
2024/03/02 14:26:36;;;;;;;7.23;6.73;;;;;;;;;;5124407;27;20758;-65
2024/03/02 14:29:02;;;;;;;5.73;5.33;;;;;;;;;;5116431;28;20834;-64
2024/03/02 14:31:29;;;;;;;6.17;5.77;;;;;;;;;;5118671;28;20454;-64
2024/03/02 14:33:55;;;;;;;8.47;7.90;;;;;;;;;;5116014;28;20446;-66
2024/03/02 14:36:22;;;;;;;7.33;6.93;;;;;;;;;;5123757;27;20434;-66
2024/03/02 14:38:48;;;;;;;8.20;7.63;;;;;;;;;;5128713;28;20485;-65
2024/03/02 14:41:16;;;;;;;7.03;6.53;;;;;;;;;;5119592;28;20564;-64